Time;durP1;ratioP1;P1;durP2;ratioP2;P2;SDS_P1;SDS_P2;PMS_P1;PMS_P2;Temp;Humidity;BMP_temperature;BMP_pressure;BME280_temperature;BME280_humidity;BME280_pressure;Samples;Min_cycle;Max_cycle;Signal;HPM_P1;HPM_P2
2021/09/11 00:00:17;;;;;;;4.30;3.90;;;19.10;99.90;;;;;;5126202;28;20409;-37
2021/09/11 00:02:43;;;;;;;6.40;4.03;;;19.00;99.90;;;;;;5125895;28;20218;-37
2021/09/11 00:05:10;;;;;;;4.03;3.70;;;19.00;99.90;;;;;;5108055;28;20425;-38
2021/09/11 00:07:36;;;;;;;4.30;3.77;;;19.00;99.90;;;;;;5125813;28;20487;-37
2021/09/11 00:10:02;;;;;;;4.50;4.07;;;19.00;99.90;;;;;;5125778;28;20819;-36
2021/09/11 00:12:28;;;;;;;5.17;4.53;;;19.00;99.90;;;;;;5118135;27;20425;-37
2021/09/11 00:14:54;;;;;;;5.33;4.80;;;19.10;99.90;;;;;;5122251;27;20489;-37
2021/09/11 00:17:19;;;;;;;6.13;3.77;;;19.10;99.90;;;;;;5127294;27;20183;-37
2021/09/11 00:19:45;;;;;;;4.50;4.10;;;19.00;99.90;;;;;;5129986;27;20182;-37
2021/09/11 00:22:11;;;;;;;5.03;4.43;;;19.00;99.90;;;;;;5129320;27;20544;-37
2021/09/11 00:24:36;;;;;;;4.40;4.00;;;19.00;99.90;;;;;;5129536;27;20187;-37
2021/09/11 00:27:02;;;;;;;5.10;4.60;;;19.10;99.90;;;;;;5124541;27;20559;-37
2021/09/11 00:29:28;;;;;;;6.80;4.07;;;19.10;99.90;;;;;;5118735;27;20171;-37
2021/09/11 00:31:53;;;;;;;4.87;4.47;;;19.00;99.90;;;;;;5110355;27;20203;-38
2021/09/11 00:34:19;;;;;;;8.37;4.90;;;19.10;99.90;;;;;;5129705;27;20662;-37
2021/09/11 00:36:45;;;;;;;5.27;4.77;;;19.10;99.90;;;;;;5129387;27;20183;-37
2021/09/11 00:39:10;;;;;;;4.97;4.57;;;19.10;99.90;;;;;;5129910;27;20183;-37
2021/09/11 00:41:36;;;;;;;7.20;4.77;;;19.10;99.90;;;;;;5128233;27;20221;-38
2021/09/11 00:44:03;;;;;;;7.37;4.63;;;19.10;99.90;;;;;;5118578;27;20262;-37
2021/09/11 00:46:29;;;;;;;5.33;4.83;;;19.10;99.90;;;;;;5129080;27;20179;-37
2021/09/11 00:48:55;;;;;;;5.47;4.97;;;19.10;99.90;;;;;;5129622;27;20976;-38
2021/09/11 00:51:21;;;;;;;5.90;4.80;;;19.10;99.90;;;;;;5129346;27;20761;-37
2021/09/11 00:53:47;;;;;;;6.50;4.13;;;19.10;99.90;;;;;;5128686;27;20205;-37
2021/09/11 00:56:13;;;;;;;6.50;5.20;;;19.20;99.90;;;;;;5129227;27;20187;-37
2021/09/11 00:58:39;;;;;;;5.83;5.33;;;19.20;99.90;;;;;;5115837;27;20427;-37
2021/09/11 01:01:06;;;;;;;6.40;5.40;;;19.20;99.90;;;;;;5127942;27;20405;-37
2021/09/11 01:03:32;;;;;;;6.73;5.10;;;19.20;99.90;;;;;;5108727;28;20840;-38
2021/09/11 01:05:58;;;;;;;5.20;4.80;;;19.10;99.90;;;;;;5115190;27;20515;-37
2021/09/11 01:08:26;;;;;;;7.60;6.07;;;19.10;99.90;;;;;;5128525;27;20444;-38
2021/09/11 01:10:52;;;;;;;5.53;4.97;;;19.20;99.90;;;;;;5128951;27;20460;-37
2021/09/11 01:13:18;;;;;;;5.77;5.07;;;19.10;99.90;;;;;;5118458;27;20460;-37
2021/09/11 01:15:44;;;;;;;6.00;4.33;;;19.10;99.90;;;;;;5126423;27;20187;-37
2021/09/11 01:18:11;;;;;;;6.73;5.40;;;19.10;99.90;;;;;;5125316;27;20821;-37
2021/09/11 01:20:38;;;;;;;6.13;5.60;;;19.10;99.90;;;;;;5110247;27;20964;-37
2021/09/11 01:23:04;;;;;;;10.83;6.13;;;19.10;99.90;;;;;;5127784;27;20464;-37
2021/09/11 01:25:30;;;;;;;6.37;5.23;;;19.20;99.90;;;;;;5128792;27;20767;-37
2021/09/11 01:27:56;;;;;;;6.90;6.10;;;19.10;99.90;;;;;;5119696;27;20429;-36
2021/09/11 01:30:23;;;;;;;6.27;5.63;;;19.20;99.90;;;;;;5124584;27;20661;-37
2021/09/11 01:32:49;;;;;;;9.63;5.47;;;19.20;99.90;;;;;;5127910;27;20183;-37
2021/09/11 01:35:15;;;;;;;6.67;6.03;;;19.20;99.90;;;;;;5128045;27;20408;-37
2021/09/11 01:37:42;;;;;;;6.83;6.23;;;19.10;99.90;;;;;;5128187;27;20474;-37
2021/09/11 01:40:09;;;;;;;6.53;5.80;;;19.10;99.90;;;;;;5128679;27;20412;-37
2021/09/11 01:42:35;;;;;;;7.70;6.60;;;19.10;99.90;;;;;;5123573;27;20432;-37
2021/09/11 01:45:05;;;;;;;6.77;6.17;;;19.20;99.90;;;;;;5124129;27;20427;-37
2021/09/11 01:47:31;;;;;;;7.43;6.13;;;19.10;99.90;;;;;;5127933;27;20421;-37
2021/09/11 01:49:57;;;;;;;6.60;6.00;;;19.20;99.90;;;;;;5127895;27;20463;-37
2021/09/11 01:52:23;;;;;;;7.77;7.00;;;19.10;99.90;;;;;;5127791;27;20179;-37
2021/09/11 01:54:49;;;;;;;9.00;8.10;;;19.20;99.90;;;;;;5127952;27;20589;-38
2021/09/11 01:57:15;;;;;;;7.97;6.50;;;19.10;99.90;;;;;;5125968;27;20420;-37
2021/09/11 01:59:41;;;;;;;7.60;6.80;;;19.10;99.90;;;;;;5123491;27;20232;-37
2021/09/11 02:02:08;;;;;;;7.67;6.80;;;19.10;99.90;;;;;;5124310;27;20409;-38
2021/09/11 02:04:35;;;;;;;7.63;6.93;;;19.10;99.90;;;;;;5127803;27;20739;-37
2021/09/11 02:07:04;;;;;;;9.10;7.10;;;19.10;99.90;;;;;;5127520;27;20574;-37
2021/09/11 02:09:30;;;;;;;10.43;9.30;;;19.20;99.90;;;;;;5127980;27;20444;-37
2021/09/11 02:11:57;;;;;;;10.07;9.17;;;19.10;99.90;;;;;;5127300;27;20456;-37
2021/09/11 02:14:23;;;;;;;10.53;9.53;;;19.10;99.90;;;;;;5117732;27;20798;-38
2021/09/11 02:16:49;;;;;;;11.67;10.57;;;19.20;99.90;;;;;;5117674;27;20409;-37
2021/09/11 02:19:15;;;;;;;12.37;11.10;;;19.20;99.90;;;;;;5127388;27;20413;-37
2021/09/11 02:21:41;;;;;;;12.00;10.03;;;19.20;99.90;;;;;;5127292;27;20610;-38
2021/09/11 02:24:07;;;;;;;13.53;12.33;;;19.20;99.90;;;;;;5127584;27;20417;-37
2021/09/11 02:26:33;;;;;;;14.77;13.37;;;19.20;99.90;;;;;;5127380;27;20729;-37
2021/09/11 02:29:00;;;;;;;15.03;13.53;;;19.20;99.90;;;;;;5117668;27;20497;-37
2021/09/11 02:31:26;;;;;;;14.57;13.27;;;19.20;99.90;;;;;;5126566;27;20513;-37
2021/09/11 02:33:52;;;;;;;14.20;12.97;;;19.20;99.90;;;;;;5113636;27;20843;-37
2021/09/11 02:36:17;;;;;;;15.80;14.20;;;19.20;99.90;;;;;;5126323;27;20545;-37
2021/09/11 02:38:43;;;;;;;17.60;13.93;;;19.20;99.90;;;;;;5127350;27;20175;-37
2021/09/11 02:41:09;;;;;;;17.83;15.90;;;19.20;99.90;;;;;;5127228;27;20182;-38
2021/09/11 02:43:35;;;;;;;16.13;14.47;;;19.10;99.90;;;;;;5119520;27;20540;-38
2021/09/11 02:46:01;;;;;;;16.80;15.10;;;19.10;99.90;;;;;;5126573;27;20516;-37
2021/09/11 02:48:27;;;;;;;16.13;14.53;;;19.10;99.90;;;;;;5126883;27;20503;-38
2021/09/11 02:50:53;;;;;;;16.37;14.80;;;19.10;99.90;;;;;;5127146;27;20301;-38
2021/09/11 02:53:19;;;;;;;19.43;17.33;;;19.20;99.90;;;;;;5126358;27;20197;-38
2021/09/11 02:55:45;;;;;;;17.90;16.03;;;19.10;99.90;;;;;;5108459;27;20421;-37
2021/09/11 02:58:10;;;;;;;17.60;15.80;;;19.10;99.90;;;;;;5122409;27;20421;-39
2021/09/11 03:00:36;;;;;;;17.87;15.97;;;19.10;99.90;;;;;;5120796;27;20191;-37
2021/09/11 03:03:03;;;;;;;17.60;15.90;;;19.10;99.90;;;;;;5125932;27;20190;-39
2021/09/11 03:05:29;;;;;;;18.43;16.40;;;19.10;99.90;;;;;;5126903;27;20581;-38
2021/09/11 03:07:55;;;;;;;19.50;16.77;;;19.20;99.90;;;;;;5126019;27;20441;-38
2021/09/11 03:10:20;;;;;;;19.97;17.87;;;19.10;99.90;;;;;;5126896;27;20258;-39
2021/09/11 03:12:46;;;;;;;20.80;17.20;;;19.10;99.90;;;;;;5126101;27;20521;-37
2021/09/11 03:15:12;;;;;;;20.80;18.40;;;19.10;99.90;;;;;;5120475;27;20187;-37
2021/09/11 03:17:38;;;;;;;22.40;17.30;;;19.10;99.90;;;;;;5123868;27;20276;-37
2021/09/11 03:20:04;;;;;;;21.33;19.13;;;19.10;99.90;;;;;;5127079;27;20451;-38
2021/09/11 03:22:30;;;;;;;24.80;19.47;;;19.10;99.90;;;;;;5126283;27;20432;-38
2021/09/11 03:24:56;;;;;;;20.43;17.07;;;19.10;99.90;;;;;;5126752;28;20425;-37
2021/09/11 03:27:22;;;;;;;22.60;19.53;;;19.10;99.90;;;;;;5126388;28;20784;-36
2021/09/11 03:29:48;;;;;;;20.43;18.33;;;19.10;99.90;;;;;;5118056;28;20270;-37
2021/09/11 03:32:13;;;;;;;20.27;18.27;;;19.10;99.90;;;;;;5121208;28;20762;-37
2021/09/11 03:34:39;;;;;;;25.10;18.33;;;19.10;99.90;;;;;;5126626;28;20187;-37
2021/09/11 03:37:04;;;;;;;20.97;18.77;;;19.00;99.90;;;;;;5126125;28;20221;-37
2021/09/11 03:39:30;;;;;;;21.67;19.37;;;19.00;99.90;;;;;;5126482;28;20684;-38
2021/09/11 03:41:56;;;;;;;21.03;18.70;;;19.00;99.90;;;;;;5126086;28;20195;-37
2021/09/11 03:44:21;;;;;;;23.00;19.40;;;19.00;99.90;;;;;;5115613;28;20191;-38
2021/09/11 03:46:47;;;;;;;21.93;19.10;;;19.00;99.90;;;;;;5126451;27;20296;-37
2021/09/11 03:49:13;;;;;;;24.20;19.63;;;19.00;99.90;;;;;;5130597;27;20197;-37
2021/09/11 03:51:39;;;;;;;22.40;19.47;;;19.00;99.90;;;;;;5130241;27;20372;-37
2021/09/11 03:54:04;;;;;;;25.00;20.57;;;19.00;99.90;;;;;;5130628;27;20625;-38
2021/09/11 03:56:30;;;;;;;23.47;19.90;;;19.00;99.90;;;;;;5130137;27;20590;-37
2021/09/11 03:58:56;;;;;;;23.23;20.70;;;18.90;99.90;;;;;;5125531;27;20649;-37
2021/09/11 04:01:22;;;;;;;25.63;20.90;;;18.90;99.90;;;;;;5126676;27;20551;-37
2021/09/11 04:03:47;;;;;;;25.87;21.00;;;18.90;99.90;;;;;;5130133;27;20183;-37
2021/09/11 04:06:13;;;;;;;27.07;22.67;;;18.90;99.90;;;;;;5129963;27;20999;-37
2021/09/11 04:08:39;;;;;;;27.87;23.10;;;18.90;99.90;;;;;;5130086;27;20199;-37
2021/09/11 04:11:05;;;;;;;24.80;21.40;;;18.90;99.90;;;;;;5129862;27;20207;-37
2021/09/11 04:13:32;;;;;;;26.00;21.80;;;18.90;99.90;;;;;;5127640;27;20408;-37
2021/09/11 04:15:58;;;;;;;25.93;22.27;;;19.00;99.90;;;;;;5122725;27;20186;-37
2021/09/11 04:18:24;;;;;;;24.60;22.00;;;19.00;99.90;;;;;;5123701;27;20911;-37
2021/09/11 04:20:49;;;;;;;29.80;22.07;;;19.00;99.90;;;;;;5130195;27;20195;-37
2021/09/11 04:23:15;;;;;;;25.40;22.50;;;19.00;99.90;;;;;;5129601;27;20197;-37
2021/09/11 04:25:41;;;;;;;26.40;22.17;;;19.00;99.90;;;;;;5129584;27;20210;-36
2021/09/11 04:28:06;;;;;;;26.30;21.03;;;19.00;99.90;;;;;;5130115;27;20222;-37
2021/09/11 04:30:32;;;;;;;25.07;21.27;;;18.90;99.90;;;;;;5115744;27;20852;-37
2021/09/11 04:32:58;;;;;;;26.70;20.80;;;19.00;99.90;;;;;;5128897;27;20179;-37
2021/09/11 04:35:24;;;;;;;23.63;20.87;;;18.90;99.90;;;;;;5129681;27;20512;-37
2021/09/11 04:37:49;;;;;;;23.10;20.60;;;18.90;99.90;;;;;;5129313;27;20271;-37
2021/09/11 04:40:15;;;;;;;26.03;21.93;;;19.00;99.90;;;;;;5129460;27;20195;-38
2021/09/11 04:42:41;;;;;;;23.07;20.60;;;18.90;99.90;;;;;;5129031;27;20707;-37
2021/09/11 04:45:07;;;;;;;23.07;20.43;;;19.00;99.90;;;;;;5120306;27;20436;-37
2021/09/11 04:47:33;;;;;;;27.03;22.10;;;19.00;99.90;;;;;;5129094;27;20547;-37
2021/09/11 04:49:58;;;;;;;23.80;19.40;;;19.00;99.90;;;;;;5110976;27;20430;-37
2021/09/11 04:52:24;;;;;;;26.00;21.43;;;19.00;99.90;;;;;;5111666;27;20191;-37
2021/09/11 04:54:50;;;;;;;24.10;21.60;;;18.90;99.90;;;;;;5129376;27;20317;-37
2021/09/11 04:57:15;;;;;;;23.93;20.53;;;18.90;99.90;;;;;;5128922;27;20183;-38
2021/09/11 04:59:41;;;;;;;23.83;21.20;;;18.90;99.90;;;;;;5121155;27;20187;-38
2021/09/11 05:02:07;;;;;;;25.80;21.70;;;18.90;99.90;;;;;;5122403;27;20305;-38
2021/09/11 05:04:32;;;;;;;26.37;21.43;;;18.90;99.90;;;;;;5124746;27;20182;-36
2021/09/11 05:06:59;;;;;;;23.57;20.00;;;18.80;99.90;;;;;;5128439;27;20202;-37
2021/09/11 05:09:25;;;;;;;24.33;20.83;;;18.80;99.90;;;;;;5129071;27;20649;-37
2021/09/11 05:11:51;;;;;;;23.50;21.00;;;18.80;99.90;;;;;;5128445;27;20503;-37
2021/09/11 05:14:17;;;;;;;23.07;20.17;;;18.80;99.90;;;;;;5123995;27;20577;-37
2021/09/11 05:16:42;;;;;;;19.30;16.80;;;18.70;99.90;;;;;;5120688;27;20598;-37
2021/09/11 05:19:08;;;;;;;20.37;17.30;;;18.70;99.90;;;;;;5128019;27;20473;-38
2021/09/11 05:21:34;;;;;;;18.33;16.23;;;18.70;99.90;;;;;;5128268;27;20194;-37
2021/09/11 05:23:59;;;;;;;16.40;14.70;;;18.70;99.90;;;;;;5128621;27;20317;-37
2021/09/11 05:26:25;;;;;;;14.90;13.40;;;18.70;99.90;;;;;;5128283;27;20659;-37
2021/09/11 05:28:51;;;;;;;15.33;13.80;;;18.70;99.90;;;;;;5127942;27;20218;-37
2021/09/11 05:31:17;;;;;;;13.27;11.87;;;18.70;99.90;;;;;;5122258;27;20215;-37
2021/09/11 05:33:43;;;;;;;12.10;10.90;;;18.70;99.90;;;;;;5127879;27;20187;-37
2021/09/11 05:36:08;;;;;;;11.27;9.80;;;18.70;99.90;;;;;;5128395;27;20421;-36
2021/09/11 05:38:34;;;;;;;12.07;10.73;;;18.70;99.90;;;;;;5128147;27;20202;-37
2021/09/11 05:41:00;;;;;;;11.43;10.10;;;18.70;99.90;;;;;;5128544;27;20657;-37
2021/09/11 05:43:26;;;;;;;13.70;9.80;;;18.60;99.90;;;;;;5109085;27;20217;-36
2021/09/11 05:45:52;;;;;;;11.97;10.77;;;18.60;99.90;;;;;;5118520;27;20206;-37
2021/09/11 05:48:18;;;;;;;10.77;9.67;;;18.60;99.90;;;;;;5125189;27;20504;-37
2021/09/11 05:50:43;;;;;;;8.97;8.07;;;18.60;99.90;;;;;;5128051;27;20465;-37
2021/09/11 05:53:09;;;;;;;14.10;8.90;;;18.50;99.90;;;;;;5127648;27;20424;-37
2021/09/11 05:55:35;;;;;;;9.40;8.10;;;18.50;99.90;;;;;;5127931;27;20330;-36
2021/09/11 05:58:01;;;;;;;7.67;6.97;;;18.50;99.90;;;;;;5127638;27;20195;-36
2021/09/11 06:00:26;;;;;;;8.60;7.67;;;18.50;99.90;;;;;;5118186;27;20184;-37
2021/09/11 06:02:52;;;;;;;12.50;7.63;;;18.50;99.90;;;;;;5124147;27;20422;-37
2021/09/11 06:05:18;;;;;;;11.60;7.90;;;18.40;99.90;;;;;;5123932;27;20206;-36
2021/09/11 06:07:43;;;;;;;9.63;8.63;;;18.30;99.90;;;;;;5127557;27;20289;-36
2021/09/11 06:10:10;;;;;;;8.80;7.10;;;18.40;99.90;;;;;;5109299;27;20211;-38
2021/09/11 06:12:36;;;;;;;9.20;7.33;;;18.30;99.90;;;;;;5127017;27;20194;-37
2021/09/11 06:15:01;;;;;;;9.57;6.97;;;18.40;99.90;;;;;;5118080;27;20522;-37
2021/09/11 06:17:27;;;;;;;8.60;7.80;;;18.40;99.90;;;;;;5122459;27;20202;-36
2021/09/11 06:19:53;;;;;;;9.10;7.57;;;18.30;99.90;;;;;;5127939;27;20794;-37
2021/09/11 06:22:18;;;;;;;8.10;7.40;;;18.40;99.90;;;;;;5127168;27;20259;-36
2021/09/11 06:24:44;;;;;;;9.57;7.83;;;18.30;99.90;;;;;;5127516;27;20596;-37
2021/09/11 06:27:10;;;;;;;7.23;6.53;;;18.40;99.90;;;;;;5108469;27;20458;-37
2021/09/11 06:29:35;;;;;;;9.03;6.60;;;18.40;99.90;;;;;;5125070;27;20190;-36
2021/09/11 06:32:01;;;;;;;9.33;6.63;;;18.40;99.90;;;;;;5118946;27;20219;-37
2021/09/11 06:34:27;;;;;;;8.23;6.40;;;18.40;99.90;;;;;;5124320;27;20179;-37
2021/09/11 06:36:53;;;;;;;8.30;6.53;;;18.50;99.90;;;;;;5126727;27;21051;-37
2021/09/11 06:39:18;;;;;;;6.03;5.53;;;18.50;99.90;;;;;;5088619;28;20605;-36
2021/09/11 06:41:44;;;;;;;7.63;5.23;;;18.50;99.90;;;;;;5122079;27;20190;-37
2021/09/11 06:44:10;;;;;;;6.63;5.90;;;18.50;99.90;;;;;;5127539;27;20227;-36
2021/09/11 06:46:35;;;;;;;6.10;5.20;;;18.50;99.90;;;;;;5094317;27;20211;-38
2021/09/11 06:49:02;;;;;;;4.93;4.53;;;18.50;99.90;;;;;;5127367;27;20216;-36
2021/09/11 06:51:28;;;;;;;5.40;4.53;;;18.50;99.90;;;;;;5126688;27;20826;-36
2021/09/11 06:53:54;;;;;;;7.63;5.17;;;18.50;99.90;;;;;;5108589;27;20420;-37
2021/09/11 06:56:20;;;;;;;4.10;3.70;;;18.40;99.90;;;;;;5126538;27;20935;-36
2021/09/11 06:58:46;;;;;;;4.50;3.80;;;18.50;99.90;;;;;;5127356;27;20183;-37
2021/09/11 07:01:11;;;;;;;5.10;3.87;;;18.50;99.90;;;;;;5097533;27;20818;-37
2021/09/11 07:03:37;;;;;;;7.57;4.50;;;18.50;99.90;;;;;;5126413;27;20697;-36
2021/09/11 07:06:04;;;;;;;4.23;3.83;;;18.50;99.90;;;;;;5126804;27;20286;-37
2021/09/11 07:08:31;;;;;;;4.63;4.23;;;18.50;99.90;;;;;;5126534;27;20206;-37
2021/09/11 07:10:56;;;;;;;5.43;4.93;;;18.50;99.90;;;;;;5126654;27;20464;-37
2021/09/11 07:13:22;;;;;;;5.20;4.10;;;18.50;99.90;;;;;;5126332;27;20945;-37
2021/09/11 07:15:48;;;;;;;7.90;4.00;;;18.50;99.90;;;;;;5111263;27;20187;-36
2021/09/11 07:18:13;;;;;;;9.33;4.83;;;18.60;99.90;;;;;;5120190;27;20641;-37
2021/09/11 07:20:39;;;;;;;3.90;3.60;;;18.60;99.90;;;;;;5125233;27;20191;-36
2021/09/11 07:23:06;;;;;;;4.40;4.00;;;18.60;99.90;;;;;;5125602;27;20198;-36
2021/09/11 07:25:31;;;;;;;5.30;4.17;;;18.70;99.90;;;;;;5126461;27;20452;-37
2021/09/11 07:27:57;;;;;;;5.17;4.40;;;18.70;99.90;;;;;;5126935;28;20467;-37
2021/09/11 07:30:23;;;;;;;4.47;3.80;;;18.70;99.90;;;;;;5120846;28;20208;-37
2021/09/11 07:32:49;;;;;;;5.07;4.57;;;18.80;99.90;;;;;;5120789;28;20183;-37
2021/09/11 07:35:15;;;;;;;5.77;3.73;;;18.80;99.90;;;;;;5126432;28;20498;-36
2021/09/11 07:37:41;;;;;;;5.07;3.97;;;18.90;99.90;;;;;;5126696;28;20425;-37
2021/09/11 07:40:07;;;;;;;6.27;4.47;;;18.90;99.90;;;;;;5126153;28;20195;-37
2021/09/11 07:42:33;;;;;;;5.70;3.93;;;18.90;99.90;;;;;;5126333;28;20195;-37
2021/09/11 07:44:58;;;;;;;6.13;4.27;;;18.90;99.90;;;;;;5124670;28;20439;-36
2021/09/11 07:47:24;;;;;;;4.87;4.13;;;18.90;99.90;;;;;;5119312;28;20175;-36
2021/09/11 07:49:50;;;;;;;4.43;4.03;;;18.90;99.90;;;;;;5126457;28;20195;-36
2021/09/11 07:52:15;;;;;;;5.17;4.37;;;18.90;99.90;;;;;;5126223;28;20210;-37
2021/09/11 07:54:41;;;;;;;9.10;4.37;;;18.90;99.90;;;;;;5126095;28;20226;-37
2021/09/11 07:57:07;;;;;;;4.33;3.93;;;18.90;99.90;;;;;;5126186;28;20198;-36
2021/09/11 07:59:32;;;;;;;5.27;3.90;;;18.90;99.90;;;;;;5126357;28;20184;-36
2021/09/11 08:01:58;;;;;;;5.33;3.90;;;18.90;99.90;;;;;;5114945;28;20203;-37
2021/09/11 08:04:24;;;;;;;4.43;4.00;;;18.90;99.90;;;;;;5125905;28;20236;-36
2021/09/11 08:06:49;;;;;;;4.67;3.83;;;18.90;99.90;;;;;;5126110;28;20195;-37
2021/09/11 08:09:15;;;;;;;7.70;4.13;;;18.90;99.90;;;;;;5126112;28;20564;-36
2021/09/11 08:11:41;;;;;;;3.90;3.60;;;18.90;99.90;;;;;;5125854;28;20838;-37
2021/09/11 08:14:07;;;;;;;6.60;4.20;;;18.90;99.90;;;;;;5123842;28;20575;-36
2021/09/11 08:16:33;;;;;;;5.60;4.30;;;18.90;99.90;;;;;;5106578;28;20199;-38
2021/09/11 08:18:59;;;;;;;4.63;4.23;;;18.90;99.90;;;;;;5122129;28;20500;-36
2021/09/11 08:21:24;;;;;;;4.43;3.93;;;18.90;99.90;;;;;;5122745;28;20966;-36
2021/09/11 08:23:50;;;;;;;4.40;4.00;;;18.90;99.90;;;;;;5126336;28;20183;-36
2021/09/11 08:26:16;;;;;;;4.90;4.40;;;18.90;99.90;;;;;;5125881;28;20187;-37
2021/09/11 08:28:42;;;;;;;4.57;4.17;;;19.00;99.90;;;;;;5126000;28;20187;-37
2021/09/11 08:31:08;;;;;;;5.30;4.00;;;18.90;99.90;;;;;;5119237;28;21026;-37
2021/09/11 08:33:33;;;;;;;6.40;3.90;;;19.00;99.90;;;;;;5123309;27;20172;-37
2021/09/11 08:35:59;;;;;;;4.70;4.20;;;19.10;99.90;;;;;;5129353;27;20541;-37
2021/09/11 08:38:25;;;;;;;4.10;3.23;;;19.10;99.90;;;;;;5129417;27;20190;-36
2021/09/11 08:40:51;;;;;;;4.63;3.43;;;19.30;99.90;;;;;;5129756;27;20366;-37
2021/09/11 08:43:18;;;;;;;3.80;3.40;;;19.30;99.90;;;;;;5129152;27;20230;-36
2021/09/11 08:45:44;;;;;;;3.93;3.60;;;19.30;99.90;;;;;;5124975;27;20553;-37
2021/09/11 08:48:10;;;;;;;3.60;3.30;;;19.40;99.90;;;;;;5123458;27;20424;-36
2021/09/11 08:50:36;;;;;;;6.07;3.80;;;19.40;99.90;;;;;;5129298;27;20555;-37
2021/09/11 08:53:01;;;;;;;3.70;3.27;;;19.50;99.90;;;;;;5128695;27;20325;-36
2021/09/11 08:55:27;;;;;;;4.60;3.20;;;19.60;99.90;;;;;;5129520;27;20194;-36
2021/09/11 08:58:07;;;;;;;2.90;2.70;;;19.70;99.90;;;;;;5129277;27;20734;-36
2021/09/11 09:00:47;;;;;;;2.93;2.30;;;19.70;99.90;;;;;;5126995;27;20243;-36
2021/09/11 09:03:40;;;;;;;2.80;2.30;;;19.90;99.90;;;;;;5121429;27;20404;-36
2021/09/11 09:06:11;;;;;;;2.73;2.53;;;19.90;99.90;;;;;;5125406;27;20896;-37
2021/09/11 09:08:37;;;;;;;2.47;2.27;;;20.00;99.90;;;;;;5128901;27;20432;-37
2021/09/11 09:11:28;;;;;;;3.10;2.57;;;20.00;99.90;;;;;;5129265;27;20804;-37
2021/09/11 09:14:01;;;;;;;2.07;1.90;;;19.90;99.90;;;;;;5128022;27;20185;-37
2021/09/11 09:16:38;;;;;;;4.07;2.70;;;19.90;99.90;;;;;;5108338;27;20699;-37
2021/09/11 09:19:22;;;;;;;3.00;2.60;;;19.90;99.90;;;;;;5106447;27;20864;-36
2021/09/11 09:21:50;;;;;;;4.70;2.70;;;19.90;99.90;;;;;;5128295;27;20496;-37
2021/09/11 09:24:36;;;;;;;3.00;1.97;;;19.90;99.90;;;;;;5128489;27;20421;-37
2021/09/11 09:27:06;;;;;;;2.20;2.00;;;19.90;99.90;;;;;;5128629;27;20781;-37
2021/09/11 09:29:40;;;;;;;2.23;2.00;;;19.80;99.90;;;;;;5128612;27;20760;-36
2021/09/11 09:32:06;;;;;;;4.27;2.10;;;19.90;99.90;;;;;;5119967;27;20456;-36
2021/09/11 09:34:37;;;;;;;3.20;2.43;;;19.80;99.90;;;;;;5128509;27;20445;-37
2021/09/11 09:37:13;;;;;;;2.37;2.17;;;19.80;99.90;;;;;;5110180;27;20429;-36
2021/09/11 09:39:45;;;;;;;3.67;2.10;;;19.80;99.90;;;;;;5094337;27;20451;-37
2021/09/11 09:42:11;;;;;;;2.47;2.27;;;19.80;99.90;;;;;;5128102;27;20444;-37
2021/09/11 09:44:43;;;;;;;2.73;2.03;;;19.80;99.90;;;;;;5128007;27;20458;-37
2021/09/11 09:47:17;;;;;;;2.40;2.20;;;19.80;99.90;;;;;;5118364;27;20470;-37
2021/09/11 09:50:09;;;;;;;2.97;2.00;;;19.80;99.90;;;;;;5125137;27;20744;-37
2021/09/11 09:52:36;;;;;;;3.13;2.10;;;19.80;99.90;;;;;;5120456;27;20650;-37
2021/09/11 09:55:03;;;;;;;3.33;2.30;;;19.80;99.90;;;;;;5128757;27;20424;-37
2021/09/11 09:57:30;;;;;;;2.50;2.30;;;19.80;99.90;;;;;;5127613;27;21131;-36
2021/09/11 09:59:58;;;;;;;2.47;2.27;;;19.80;99.90;;;;;;5128151;27;20446;-39
2021/09/11 10:02:24;;;;;;;2.53;2.30;;;19.80;99.90;;;;;;5116387;27;20553;-38
2021/09/11 10:04:50;;;;;;;2.10;1.93;;;19.90;99.90;;;;;;5127699;27;20777;-40
2021/09/11 10:07:19;;;;;;;2.60;2.30;;;19.90;99.90;;;;;;5127625;27;20207;-41
2021/09/11 10:09:48;;;;;;;6.43;2.53;;;20.00;99.90;;;;;;5127794;27;20423;-38
2021/09/11 10:12:34;;;;;;;2.50;2.10;;;20.00;99.90;;;;;;5127254;27;20817;-38
2021/09/11 10:15:21;;;;;;;2.23;2.00;;;20.10;99.90;;;;;;5116570;27;20458;-38
2021/09/11 10:17:47;;;;;;;2.83;2.37;;;20.20;99.90;;;;;;5118511;27;20508;-42
2021/09/11 10:20:13;;;;;;;2.57;2.00;;;20.30;99.90;;;;;;5109000;27;20524;-41
2021/09/11 10:22:43;;;;;;;2.07;1.90;;;20.20;99.90;;;;;;5127240;27;20198;-39
2021/09/11 10:25:08;;;;;;;2.13;2.00;;;20.20;99.90;;;;;;5127773;27;20227;-38
2021/09/11 10:27:38;;;;;;;2.10;2.00;;;20.20;99.90;;;;;;5127466;27;20420;-40
2021/09/11 10:30:14;;;;;;;2.77;2.37;;;20.20;99.90;;;;;;5127252;27;20661;-39
2021/09/11 10:32:46;;;;;;;3.90;2.10;;;20.20;99.90;;;;;;5120774;27;20497;-38
2021/09/11 10:35:18;;;;;;;3.67;2.60;;;20.10;99.90;;;;;;5125251;27;21043;-40
2021/09/11 10:37:52;;;;;;;4.07;2.67;;;20.10;99.90;;;;;;5127103;27;20423;-39
2021/09/11 10:40:26;;;;;;;2.07;1.97;;;20.10;99.90;;;;;;5127278;27;20420;-43
2021/09/11 10:43:08;;;;;;;3.10;2.90;;;20.10;99.90;;;;;;5127243;27;20416;-39
2021/09/11 10:45:45;;;;;;;3.50;2.40;;;20.20;99.90;;;;;;5126876;27;20527;-39
2021/09/11 10:48:30;;;;;;;3.83;2.70;;;20.20;99.90;;;;;;5116604;27;20503;-39
2021/09/11 10:50:56;;;;;;;2.60;2.23;;;20.20;99.90;;;;;;5119305;27;20442;-40
2021/09/11 10:53:22;;;;;;;2.40;2.20;;;20.10;99.90;;;;;;5126928;27;20416;-41
2021/09/11 10:55:49;;;;;;;3.17;2.97;;;20.20;99.90;;;;;;5126743;27;20432;-39
2021/09/11 10:58:24;;;;;;;2.60;2.40;;;20.20;99.90;;;;;;5126534;27;20417;-39
2021/09/11 11:01:00;;;;;;;2.70;2.47;;;20.20;99.90;;;;;;5127582;27;20543;-42
2021/09/11 11:03:27;;;;;;;3.07;2.77;;;20.20;99.90;;;;;;5115423;27;20435;-39
2021/09/11 11:06:04;;;;;;;2.83;2.60;;;20.20;99.90;;;;;;5126780;27;20778;-41
2021/09/11 11:08:31;;;;;;;3.63;2.60;;;20.30;99.90;;;;;;5126591;27;20451;-41
2021/09/11 11:10:58;;;;;;;2.77;2.57;;;20.30;99.90;;;;;;5126920;27;20571;-42
2021/09/11 11:13:24;;;;;;;3.53;2.87;;;20.30;99.90;;;;;;5126613;27;20444;-40
2021/09/11 11:15:58;;;;;;;2.63;2.40;;;20.40;99.90;;;;;;5110978;28;20412;-39
2021/09/11 11:18:28;;;;;;;2.40;2.20;;;20.40;99.90;;;;;;5096171;27;20475;-41
2021/09/11 11:20:54;;;;;;;2.40;2.20;;;20.40;99.90;;;;;;5123933;27;20839;-38
2021/09/11 11:23:20;;;;;;;2.90;2.20;;;20.50;99.90;;;;;;5126217;27;20427;-38
2021/09/11 11:25:49;;;;;;;2.93;2.63;;;20.40;99.90;;;;;;5126866;27;20416;-39
2021/09/11 11:28:17;;;;;;;2.80;2.60;;;20.40;99.90;;;;;;5127033;27;20709;-39
2021/09/11 11:30:44;;;;;;;2.53;2.33;;;20.40;99.90;;;;;;5126772;28;20456;-41
2021/09/11 11:33:10;;;;;;;2.77;2.57;;;20.40;99.90;;;;;;5119195;28;21033;-42
2021/09/11 11:35:41;;;;;;;2.90;2.70;;;20.40;99.90;;;;;;5124971;28;20409;-41
2021/09/11 11:38:07;;;;;;;3.10;2.83;;;20.40;99.90;;;;;;5126471;28;20446;-39
2021/09/11 11:40:33;;;;;;;2.70;2.50;;;20.40;99.90;;;;;;5126886;28;20420;-40
2021/09/11 11:43:04;;;;;;;3.83;2.90;;;20.40;99.90;;;;;;5126029;28;20760;-40
2021/09/11 11:45:31;;;;;;;3.07;2.70;;;20.50;99.90;;;;;;5126665;28;20958;-41
2021/09/11 11:48:13;;;;;;;3.07;2.77;;;20.50;99.90;;;;;;5117161;28;20432;-38
2021/09/11 11:50:41;;;;;;;3.87;2.90;;;20.50;99.90;;;;;;5124757;28;20490;-39
2021/09/11 11:53:18;;;;;;;3.00;2.70;;;20.40;99.90;;;;;;5126149;28;20440;-42
2021/09/11 11:55:52;;;;;;;3.20;2.83;;;20.50;99.90;;;;;;5126437;28;20847;-39
2021/09/11 11:58:20;;;;;;;3.13;2.87;;;20.50;99.90;;;;;;5126042;28;20766;-39
2021/09/11 12:00:48;;;;;;;3.50;2.77;;;20.50;99.90;;;;;;5126641;28;20758;-38
2021/09/11 12:03:36;;;;;;;3.50;3.10;;;20.50;99.90;;;;;;5116267;28;20425;-41
2021/09/11 12:06:03;;;;;;;3.20;2.90;;;20.50;99.90;;;;;;5121661;28;20794;-40
2021/09/11 12:08:31;;;;;;;3.80;3.00;;;20.40;99.90;;;;;;5128328;27;20432;-39
2021/09/11 12:10:57;;;;;;;3.63;3.33;;;20.40;99.90;;;;;;5130067;27;20452;-38
2021/09/11 12:13:24;;;;;;;3.40;3.10;;;20.40;99.90;;;;;;5121187;27;20505;-38
2021/09/11 12:15:50;;;;;;;3.47;3.03;;;20.50;99.90;;;;;;5109426;28;20195;-40
2021/09/11 12:18:17;;;;;;;3.60;3.27;;;20.60;99.90;;;;;;5113990;27;20927;-40
2021/09/11 12:20:51;;;;;;;4.63;3.37;;;20.50;99.90;;;;;;5126736;27;20195;-39
2021/09/11 12:23:27;;;;;;;3.70;3.40;;;20.60;99.90;;;;;;5127747;27;20978;-38
2021/09/11 12:25:56;;;;;;;3.03;2.73;;;20.60;99.90;;;;;;5129729;27;21103;-39
2021/09/11 12:28:40;;;;;;;4.07;3.37;;;20.60;99.90;;;;;;5130409;27;20460;-44
2021/09/11 12:31:14;;;;;;;3.87;3.00;;;20.70;99.90;;;;;;5111414;27;20460;-41
2021/09/11 12:33:53;;;;;;;3.47;3.17;;;20.60;99.90;;;;;;5121913;27;20958;-41
2021/09/11 12:36:21;;;;;;;3.97;3.57;;;20.70;99.90;;;;;;5129566;27;20775;-44
2021/09/11 12:38:47;;;;;;;4.50;3.27;;;20.70;99.90;;;;;;5111744;27;20495;-38
2021/09/11 12:41:13;;;;;;;3.90;3.33;;;20.70;99.90;;;;;;5129504;27;20980;-41